Time;durP1;ratioP1;P1;durP2;ratioP2;P2;SDS_P1;SDS_P2;PMS_P1;PMS_P2;Temp;Humidity;BMP_temperature;BMP_pressure;BME280_temperature;BME280_humidity;BME280_pressure;Samples;Min_cycle;Max_cycle;Signal;HPM_P1;HPM_P2
2022/11/21 00:00:26;;;;;;;17.57;12.37;;;;;;;40.99;33.79;101073.22;5014911;28;20426;-71
2022/11/21 00:02:52;;;;;;;31.83;13.70;;;;;;;41.04;33.57;101066.81;5014777;28;20428;-72
2022/11/21 00:05:18;;;;;;;19.80;12.27;;;;;;;41.12;33.71;101085.03;5014503;28;20486;-71
2022/11/21 00:07:44;;;;;;;22.47;12.43;;;;;;;40.75;34.08;101097.38;5030934;28;20469;-73
2022/11/21 00:10:12;;;;;;;23.90;14.67;;;;;;;40.75;33.86;101094.63;5014611;28;20431;-73
2022/11/21 00:12:38;;;;;;;16.00;11.30;;;;;;;40.92;34.14;101093.88;5014325;28;21036;-74
2022/11/21 00:15:05;;;;;;;42.30;15.43;;;;;;;40.40;35.08;101088.38;5014561;28;20416;-73
2022/11/21 00:17:31;;;;;;;26.10;13.20;;;;;;;40.66;34.54;101094.66;5014476;28;20509;-73
2022/11/21 00:19:56;;;;;;;28.33;14.13;;;;;;;40.78;34.90;101085.84;5014237;28;20508;-73
2022/11/21 00:22:22;;;;;;;28.93;14.63;;;;;;;40.88;34.78;101073.84;5030863;28;20173;-71
2022/11/21 00:24:48;;;;;;;23.83;12.20;;;;;;;41.00;34.50;101074.81;5010907;28;20241;-72
2022/11/21 00:27:14;;;;;;;27.63;13.13;;;;;;;41.02;33.82;101064.41;5011183;28;20448;-71
2022/11/21 00:29:40;;;;;;;28.23;12.50;;;;;;;41.03;33.60;101065.22;5012745;28;20178;-71
2022/11/21 00:32:06;;;;;;;22.67;13.80;;;;;;;40.88;34.19;101073.84;5010974;28;20598;-72
2022/11/21 00:34:32;;;;;;;25.43;12.80;;;;;;;40.88;34.22;101057.50;5011032;28;20181;-72
2022/11/21 00:36:58;;;;;;;36.53;12.40;;;;;;;40.93;34.62;101057.38;5012594;28;20184;-72
2022/11/21 00:39:24;;;;;;;24.00;12.37;;;;;;;40.93;34.54;101052.72;5010988;28;20427;-72
2022/11/21 00:41:49;;;;;;;27.03;14.27;;;;;;;40.85;34.76;101052.72;5014744;28;20463;-74
2022/11/21 00:44:15;;;;;;;30.30;14.00;;;;;;;40.78;35.03;101034.19;5014912;28;20193;-72
2022/11/21 00:46:41;;;;;;;23.53;10.70;;;;;;;40.64;35.19;101050.69;5022112;28;20607;-72
2022/11/21 00:49:07;;;;;;;22.57;14.10;;;;;;;40.64;35.06;101047.13;5034368;28;20188;-73
2022/11/21 00:51:33;;;;;;;25.53;12.23;;;;;;;40.42;35.43;101039.91;5034261;28;20176;-73
2022/11/21 00:53:59;;;;;;;26.77;15.10;;;;;;;40.54;35.49;101037.38;5034454;28;20555;-71
2022/11/21 00:56:25;;;;;;;18.50;11.67;;;;;;;40.65;35.09;101030.50;5034135;28;20177;-72
2022/11/21 00:58:51;;;;;;;26.23;12.37;;;;;;;40.86;34.67;101038.00;5034251;28;20546;-73
2022/11/21 01:01:16;;;;;;;23.30;11.67;;;;;;;40.88;34.52;101025.66;5034606;28;21020;-73
2022/11/21 01:03:45;;;;;;;29.93;13.57;;;;;;;40.88;35.01;101019.41;5034027;28;20427;-73
2022/11/21 01:06:12;;;;;;;28.63;11.30;;;;;;;40.92;34.81;101025.84;5034011;28;20464;-73
2022/11/21 01:08:42;;;;;;;19.53;11.83;;;;;;;40.97;34.45;101025.69;5033886;28;20542;-73
2022/11/21 01:11:16;;;;;;;21.87;12.13;;;;;;;40.91;34.88;101022.34;5033919;28;20450;-73
2022/11/21 01:13:42;;;;;;;31.53;12.57;;;;;;;41.05;34.21;101019.41;5033994;28;20453;-71
2022/11/21 01:16:11;;;;;;;25.70;14.03;;;;;;;41.01;34.51;101010.31;5033794;28;20795;-72
2022/11/21 01:18:37;;;;;;;26.93;15.23;;;;;;;40.84;35.25;101004.88;5033839;28;20415;-71
2022/11/21 01:21:12;;;;;;;20.87;14.30;;;;;;;40.94;35.52;101002.63;5033644;28;20956;-71
2022/11/21 01:23:38;;;;;;;20.17;12.10;;;;;;;41.02;36.00;100992.88;5033761;28;20423;-72
2022/11/21 01:26:07;;;;;;;21.23;13.80;;;;;;;40.85;36.94;100990.97;5036757;28;20924;-72
2022/11/21 01:28:33;;;;;;;22.43;12.70;;;;;;;40.85;37.48;100990.16;5036923;28;20407;-72
2022/11/21 01:31:07;;;;;;;25.60;14.87;;;;;;;40.67;37.27;100984.75;5036815;28;20510;-72
2022/11/21 01:33:34;;;;;;;21.73;13.77;;;;;;;40.91;37.24;100991.63;5036861;28;20871;-72
2022/11/21 01:36:10;;;;;;;43.03;15.10;;;;;;;41.05;36.74;100982.13;5036730;28;20457;-73
2022/11/21 01:38:36;;;;;;;19.60;13.43;;;;;;;41.11;36.77;100988.19;5036739;28;20418;-73
2022/11/21 01:41:03;;;;;;;22.33;14.13;;;;;;;41.13;36.44;100979.69;5036648;28;20427;-71
2022/11/21 01:43:29;;;;;;;33.33;13.80;;;;;;;41.23;36.09;100976.63;5036572;28;20899;-72
2022/11/21 01:45:58;;;;;;;24.23;13.77;;;;;;;40.84;37.44;100985.84;5054675;28;20449;-74
2022/11/21 01:48:41;;;;;;;32.27;13.00;;;;;;;40.92;37.46;100985.06;5036537;28;20208;-74
2022/11/21 01:51:23;;;;;;;18.83;12.57;;;;;;;41.11;37.29;100971.84;5036317;28;20851;-74
2022/11/21 01:54:08;;;;;;;20.80;12.80;;;;;;;41.03;37.28;100980.84;5036033;28;20431;-74
2022/11/21 01:56:51;;;;;;;23.20;12.67;;;;;;;40.83;37.43;100989.69;5036284;28;20419;-74
2022/11/21 01:59:25;;;;;;;29.43;12.80;;;;;;;40.84;37.43;100992.09;5036329;28;20510;-74
2022/11/21 02:01:54;;;;;;;20.13;11.30;;;;;;;41.11;36.86;100981.94;5036079;28;20438;-74
2022/11/21 02:04:23;;;;;;;27.13;13.20;;;;;;;41.13;36.80;100983.25;5035957;28;20807;-73
2022/11/21 02:06:50;;;;;;;25.17;13.70;;;;;;;40.86;37.27;100978.16;5035902;28;20557;-72
2022/11/21 02:09:17;;;;;;;25.63;12.40;;;;;;;40.61;38.25;100975.16;5036172;28;20502;-72
2022/11/21 02:11:51;;;;;;;27.07;12.60;;;;;;;40.93;36.93;100973.03;5035971;28;20541;-72
2022/11/21 02:14:17;;;;;;;31.30;15.13;;;;;;;40.96;37.42;100969.69;5036347;28;20433;-72
2022/11/21 02:16:43;;;;;;;27.63;14.20;;;;;;;40.72;37.79;100973.69;5035989;28;20506;-72
2022/11/21 02:19:21;;;;;;;18.70;12.27;;;;;;;40.58;38.10;100972.28;5036040;28;20530;-72
2022/11/21 02:22:08;;;;;;;20.33;13.50;;;;;;;40.86;37.54;100978.94;5035857;28;20419;-72
2022/11/21 02:24:42;;;;;;;30.80;14.40;;;;;;;40.91;37.45;100973.38;5035614;28;20470;-72
2022/11/21 02:27:09;;;;;;;24.07;13.50;;;;;;;40.90;36.90;100971.78;5035654;28;20475;-72
2022/11/21 02:29:35;;;;;;;20.73;14.53;;;;;;;40.98;37.08;100965.50;5035760;28;20502;-72
2022/11/21 02:32:05;;;;;;;25.90;13.30;;;;;;;41.02;37.26;100961.00;5035688;28;20487;-72
2022/11/21 02:34:34;;;;;;;20.33;14.50;;;;;;;40.78;37.29;100961.53;5054087;28;20395;-72
2022/11/21 02:37:01;;;;;;;22.83;14.47;;;;;;;40.85;37.20;100958.31;5035652;28;20417;-72
2022/11/21 02:39:33;;;;;;;21.93;14.20;;;;;;;40.86;37.68;100968.06;5035575;28;20469;-72
2022/11/21 02:42:27;;;;;;;27.23;14.83;;;;;;;40.71;37.43;100960.44;5035660;28;20450;-72
2022/11/21 02:45:02;;;;;;;18.33;12.27;;;;;;;40.80;37.20;100956.56;5053451;28;20529;-73
2022/11/21 02:47:30;;;;;;;18.77;13.63;;;;;;;40.80;37.45;100951.13;5035170;28;20949;-73
2022/11/21 02:50:43;;;;;;;25.07;19.00;;;;;;;40.53;37.67;100954.22;5035436;28;20930;-72
2022/11/21 02:53:12;;;;;;;18.43;13.90;;;;;;;40.35;37.97;100952.63;4992551;28;20488;-72
2022/11/21 02:55:38;;;;;;;18.37;12.37;;;;;;;40.17;38.50;100952.63;5035220;28;20415;-72
2022/11/21 02:58:05;;;;;;;32.00;15.03;;;;;;;40.32;38.44;100940.44;5035193;28;20537;-73
2022/11/21 03:00:34;;;;;;;20.83;14.77;;;;;;;40.58;38.30;100940.47;5035234;28;20419;-73
2022/11/21 03:03:00;;;;;;;20.50;14.03;;;;;;;40.47;38.01;100944.59;5052841;28;20582;-74
2022/11/21 03:05:27;;;;;;;26.43;14.23;;;;;;;40.49;37.95;100942.38;5053197;28;20473;-74
2022/11/21 03:07:52;;;;;;;22.30;13.37;;;;;;;40.28;38.10;100948.47;5034899;28;20510;-72
2022/11/21 03:10:19;;;;;;;28.60;13.07;;;;;;;40.46;37.84;100951.16;5053357;28;20481;-72
2022/11/21 03:12:45;;;;;;;20.60;13.07;;;;;;;40.24;38.43;100944.78;5034966;28;20253;-72
2022/11/21 03:15:13;;;;;;;29.57;10.80;;;;;;;40.32;38.14;100942.38;5034828;28;20423;-71
2022/11/21 03:17:40;;;;;;;27.83;13.80;;;;;;;40.51;37.45;100937.41;5034967;28;20225;-72
2022/11/21 03:20:07;;;;;;;29.30;15.47;;;;;;;40.67;37.22;100945.88;5034651;28;21001;-72
2022/11/21 03:22:33;;;;;;;25.00;14.53;;;;;;;40.62;37.28;100940.59;5034865;28;20447;-72
2022/11/21 03:24:59;;;;;;;20.30;14.10;;;;;;;40.06;38.39;100939.66;5034526;28;21018;-74
2022/11/21 03:27:25;;;;;;;23.60;14.90;;;;;;;40.38;38.16;100936.44;5034711;28;20430;-74
2022/11/21 03:29:51;;;;;;;26.90;13.67;;;;;;;40.52;37.66;100945.28;5034745;28;20814;-74
2022/11/21 03:32:17;;;;;;;33.57;14.33;;;;;;;40.78;37.51;100941.69;5034208;28;20435;-74
2022/11/21 03:34:43;;;;;;;25.80;14.03;;;;;;;40.44;38.39;100950.69;5034618;28;20267;-72
2022/11/21 03:37:09;;;;;;;20.33;12.50;;;;;;;40.67;37.84;100957.56;5034719;28;20218;-72
2022/11/21 03:39:35;;;;;;;27.40;11.90;;;;;;;40.87;37.08;100947.91;5034633;28;20415;-74
2022/11/21 03:42:00;;;;;;;20.27;15.03;;;;;;;40.58;37.79;100950.53;5034590;28;20575;-73
2022/11/21 03:44:26;;;;;;;23.77;14.93;;;;;;;40.28;38.49;100951.19;5034505;28;20430;-74
2022/11/21 03:46:52;;;;;;;29.77;15.03;;;;;;;40.75;37.62;100955.94;5034318;28;20252;-74
2022/11/21 03:49:18;;;;;;;26.37;15.20;;;;;;;40.63;38.32;100955.78;5034796;28;20798;-72
2022/11/21 03:51:44;;;;;;;27.67;14.80;;;;;;;40.45;38.35;100958.50;5034328;28;20179;-72
2022/11/21 03:54:10;;;;;;;23.43;16.07;;;;;;;40.50;38.54;100955.66;5034426;28;20180;-72
2022/11/21 03:56:38;;;;;;;20.40;14.07;;;;;;;40.62;38.29;100952.28;5034420;28;20421;-71
2022/11/21 03:59:04;;;;;;;27.43;16.13;;;;;;;40.80;37.94;100953.84;5034290;28;20422;-72
2022/11/21 04:01:30;;;;;;;32.70;18.23;;;;;;;40.60;38.16;100959.97;5031525;28;20419;-72
2022/11/21 04:03:57;;;;;;;36.77;19.53;;;;;;;40.69;38.11;100957.22;5034352;28;20415;-72
2022/11/21 04:06:23;;;;;;;22.67;15.13;;;;;;;40.66;38.19;100957.88;5034447;28;20536;-72
2022/11/21 04:08:50;;;;;;;26.23;16.67;;;;;;;40.32;38.40;100962.19;5034223;28;20434;-71
2022/11/21 04:11:16;;;;;;;23.57;18.03;;;;;;;40.32;38.76;100970.34;5034383;28;20545;-73
2022/11/21 04:13:42;;;;;;;29.30;15.93;;;;;;;40.41;38.32;100976.59;5034746;28;20503;-74
2022/11/21 04:16:09;;;;;;;26.77;18.53;;;;;;;40.39;38.21;100978.03;5036670;28;20513;-71
2022/11/21 04:18:35;;;;;;;32.53;18.90;;;;;;;40.23;38.25;100983.94;5056603;28;20167;-72
2022/11/21 04:21:06;;;;;;;20.93;16.03;;;;;;;40.29;38.27;100990.03;5038340;28;20930;-71
2022/11/21 04:23:32;;;;;;;22.20;16.70;;;;;;;40.23;38.21;100994.03;5038234;28;20450;-71
2022/11/21 04:25:59;;;;;;;30.23;18.73;;;;;;;39.74;39.14;100988.66;5037865;28;20473;-73
2022/11/21 04:28:25;;;;;;;33.67;18.90;;;;;;;40.24;38.35;100993.69;5037982;28;21075;-74
2022/11/21 04:30:51;;;;;;;30.80;19.10;;;;;;;40.20;38.33;101000.88;5038210;28;20946;-74
2022/11/21 04:33:17;;;;;;;32.93;19.83;;;;;;;40.29;38.13;101006.34;5037895;28;20414;-74
2022/11/21 04:35:45;;;;;;;30.73;17.90;;;;;;;40.14;38.15;101004.88;5037941;28;20473;-74
2022/11/21 04:38:12;;;;;;;27.37;15.63;;;;;;;40.41;38.09;101008.41;5037905;28;20514;-72
2022/11/21 04:40:38;;;;;;;29.63;15.87;;;;;;;40.21;38.02;101012.56;5037738;28;20446;-72
2022/11/21 04:43:04;;;;;;;29.63;18.17;;;;;;;40.33;37.97;101011.91;5056010;28;20887;-73
2022/11/21 04:45:30;;;;;;;26.93;16.73;;;;;;;40.31;38.38;101019.59;5037532;28;20474;-72
2022/11/21 04:47:56;;;;;;;25.27;18.40;;;;;;;40.41;37.71;101020.09;5037561;28;20435;-73
2022/11/21 04:50:23;;;;;;;28.57;17.07;;;;;;;40.53;37.84;101027.63;5037663;28;20775;-74
2022/11/21 04:52:53;;;;;;;29.70;18.17;;;;;;;40.21;38.46;101023.44;5037436;28;20633;-72
2022/11/21 04:55:21;;;;;;;32.73;16.80;;;;;;;40.19;38.11;101015.59;5037553;28;20415;-72
2022/11/21 04:57:48;;;;;;;24.13;17.17;;;;;;;40.44;37.80;101024.06;5055465;28;20430;-71
2022/11/21 05:00:16;;;;;;;16.37;15.57;;;;;;;40.27;37.93;101027.59;5037415;28;20426;-72
2022/11/21 05:02:42;;;;;;;26.43;16.13;;;;;;;40.18;38.32;101024.06;5037245;28;20426;-72
2022/11/21 05:05:09;;;;;;;23.60;17.03;;;;;;;40.06;38.56;101015.75;5037265;28;20472;-73
2022/11/21 05:07:35;;;;;;;35.17;22.10;;;;;;;40.04;38.24;101021.50;5034835;28;20454;-74
2022/11/21 05:10:01;;;;;;;24.83;18.53;;;;;;;40.16;38.26;101010.81;5046275;28;20438;-71
2022/11/21 05:15:11;;;;;;;27.70;21.03;;;;;;;40.37;37.82;101026.47;5055049;28;20545;-71
2022/11/21 05:17:37;;;;;;;28.90;19.83;;;;;;;40.43;38.17;101027.91;5037054;28;20540;-72
2022/11/21 05:20:03;;;;;;;33.07;20.07;;;;;;;40.33;38.04;101030.94;5037007;28;20187;-72
2022/11/21 05:22:29;;;;;;;29.57;19.60;;;;;;;39.97;38.46;101029.28;5037098;28;20195;-73
2022/11/21 05:24:55;;;;;;;31.17;22.00;;;;;;;39.83;39.01;101029.38;5033495;28;20861;-74
2022/11/21 05:27:21;;;;;;;27.70;18.60;;;;;;;39.75;38.91;101038.31;5032180;28;20195;-73
2022/11/21 05:29:47;;;;;;;29.77;19.90;;;;;;;40.05;39.02;101047.53;5033639;28;20807;-73
2022/11/21 05:32:13;;;;;;;41.20;26.50;;;;;;;40.19;38.42;101050.91;5033491;28;20513;-71
2022/11/21 05:34:39;;;;;;;27.10;21.90;;;;;;;40.04;38.86;101051.38;5033095;28;20192;-71
2022/11/21 05:37:05;;;;;;;34.23;24.53;;;;;;;40.15;38.22;101058.13;5033529;28;20419;-73
2022/11/21 05:39:31;;;;;;;31.37;22.93;;;;;;;39.78;39.01;101056.72;5032996;28;20420;-72
2022/11/21 05:41:57;;;;;;;37.10;23.00;;;;;;;40.13;38.56;101067.69;5034532;28;20416;-73
2022/11/21 05:44:22;;;;;;;30.27;22.60;;;;;;;40.17;38.42;101071.38;5025480;28;20209;-73
2022/11/21 05:46:48;;;;;;;37.03;28.70;;;;;;;40.02;38.57;101069.88;5032754;28;20525;-71
2022/11/21 05:49:14;;;;;;;37.70;27.57;;;;;;;40.11;38.35;101078.09;5033324;28;20193;-71
2022/11/21 05:51:40;;;;;;;43.60;27.57;;;;;;;39.99;38.53;101084.91;5033183;28;20215;-72
2022/11/21 05:54:06;;;;;;;37.00;27.83;;;;;;;40.10;38.64;101082.72;5033022;28;20438;-72
2022/11/21 05:56:32;;;;;;;33.07;24.90;;;;;;;40.17;38.60;101074.91;5023254;28;20502;-71
2022/11/21 05:58:58;;;;;;;27.60;24.07;;;;;;;39.75;39.48;101087.19;5024151;28;20181;-71
2022/11/21 06:04:09;;;;;;;26.30;21.50;;;;;;;39.84;39.56;101089.94;5031508;28;20442;-72
2022/11/21 06:06:35;;;;;;;43.10;23.30;;;;;;;40.05;39.06;101082.88;5021758;28;20456;-71
2022/11/21 06:09:02;;;;;;;33.53;21.33;;;;;;;39.56;39.44;101087.41;5013248;28;20428;-71
2022/11/21 06:11:28;;;;;;;35.70;23.87;;;;;;;39.85;39.45;101097.78;5013100;28;20424;-70
2022/11/21 06:13:54;;;;;;;33.43;25.33;;;;;;;40.08;38.70;101084.94;5013209;28;20448;-72
2022/11/21 06:16:20;;;;;;;31.50;21.23;;;;;;;40.12;38.94;101090.56;5013804;28;20184;-72
2022/11/21 06:18:49;;;;;;;32.73;23.47;;;;;;;40.20;38.36;101087.84;5031884;28;20505;-72
2022/11/21 06:21:17;;;;;;;34.13;26.90;;;;;;;40.17;38.67;101091.22;5027867;28;20524;-72
2022/11/21 06:23:44;;;;;;;41.13;30.67;;;;;;;39.92;38.90;101105.50;5012995;28;20427;-70
2022/11/21 06:26:15;;;;;;;44.63;32.33;;;;;;;40.17;38.71;101096.63;5034807;28;20458;-70
2022/11/21 06:28:43;;;;;;;35.33;27.87;;;;;;;40.39;38.55;101100.34;5035544;28;20426;-70
2022/11/21 06:31:14;;;;;;;41.37;29.20;;;;;;;39.87;39.38;101100.19;5034964;28;20427;-72
2022/11/21 06:33:41;;;;;;;37.20;28.83;;;;;;;39.76;39.27;101100.47;5030465;28;20427;-73
2022/11/21 06:36:10;;;;;;;35.77;26.87;;;;;;;40.06;39.24;101106.19;5033680;28;20512;-73
2022/11/21 06:38:36;;;;;;;39.80;29.80;;;;;;;39.54;39.72;101102.41;5032519;28;20954;-72
2022/11/21 06:41:13;;;;;;;44.03;32.47;;;;;;;39.88;39.66;101102.59;5033920;28;20415;-72
2022/11/21 06:43:40;;;;;;;58.57;32.20;;;;;;;40.17;38.99;101110.22;5033391;28;20809;-72
2022/11/21 06:46:06;;;;;;;44.90;30.57;;;;;;;40.04;39.04;101111.16;5033196;28;21108;-72
2022/11/21 06:48:34;;;;;;;41.53;32.07;;;;;;;40.27;38.89;101118.09;5033659;28;20422;-72
2022/11/21 06:51:04;;;;;;;41.17;31.03;;;;;;;40.37;38.33;101108.81;5033746;28;20419;-72
2022/11/21 06:53:30;;;;;;;43.40;33.10;;;;;;;40.17;38.74;101123.00;5033838;28;20446;-72
2022/11/21 06:56:00;;;;;;;43.47;31.87;;;;;;;40.38;38.46;101121.28;5033705;28;20434;-73
2022/11/21 06:58:27;;;;;;;41.50;30.33;;;;;;;40.47;38.94;101118.59;5033654;28;20423;-72
2022/11/21 07:00:54;;;;;;;54.87;35.90;;;;;;;40.49;38.35;101124.53;5034805;28;20447;-70
2022/11/21 07:03:21;;;;;;;43.53;36.93;;;;;;;40.01;39.41;101130.75;5035113;28;20517;-70
2022/11/21 07:05:48;;;;;;;43.00;32.60;;;;;;;39.78;39.83;101140.91;5035003;28;20465;-70
2022/11/21 07:08:14;;;;;;;56.90;33.67;;;;;;;39.63;40.08;101144.00;5053384;28;20461;-70
2022/11/21 07:10:40;;;;;;;48.47;36.60;;;;;;;39.98;39.88;101136.84;5053342;28;20494;-71
2022/11/21 07:15:53;;;;;;;43.53;31.50;;;;;;;40.52;39.16;101153.84;5053239;28;20534;-72
2022/11/21 07:18:20;;;;;;;37.80;30.53;;;;;;;40.61;38.77;101156.56;5034844;28;20419;-73
2022/11/21 07:20:47;;;;;;;35.83;28.57;;;;;;;40.73;37.93;101162.16;5034847;28;20797;-72
2022/11/21 07:23:13;;;;;;;38.83;30.57;;;;;;;40.67;38.73;101171.59;5052881;28;20446;-72
2022/11/21 07:25:41;;;;;;;42.33;30.90;;;;;;;40.83;38.17;101175.47;5034812;28;20561;-72
2022/11/21 07:28:08;;;;;;;41.57;29.20;;;;;;;40.94;38.28;101173.25;5034835;28;20490;-73
2022/11/21 07:30:35;;;;;;;25.90;23.23;;;;;;;40.95;37.97;101183.03;5034699;28;20422;-72
2022/11/21 07:33:04;;;;;;;37.17;24.80;;;;;;;40.83;38.00;101183.63;5034641;28;20442;-72
2022/11/21 07:35:31;;;;;;;31.80;21.57;;;;;;;40.84;37.90;101189.88;5034585;28;20407;-72
2022/11/21 07:37:57;;;;;;;31.50;20.57;;;;;;;40.92;37.98;101186.38;5052878;28;20481;-72
2022/11/21 07:40:23;;;;;;;33.00;18.37;;;;;;;40.56;38.37;101198.28;5034601;28;20925;-72
2022/11/21 07:42:49;;;;;;;27.43;20.60;;;;;;;40.98;38.22;101188.63;5035057;28;20415;-72
2022/11/21 07:45:15;;;;;;;33.00;20.13;;;;;;;41.11;37.56;101197.72;5034060;28;20885;-72
2022/11/21 07:47:41;;;;;;;29.20;20.80;;;;;;;41.12;37.78;101201.25;5034643;28;20188;-73
2022/11/21 07:50:09;;;;;;;30.37;19.27;;;;;;;41.20;37.71;101205.91;5033697;28;20411;-72
2022/11/21 07:52:35;;;;;;;36.07;20.40;;;;;;;40.94;37.86;101203.97;5034401;28;20490;-72
2022/11/21 07:55:03;;;;;;;43.90;20.83;;;;;;;41.09;37.24;101208.16;5052563;28;20745;-72
2022/11/21 07:57:29;;;;;;;34.80;18.90;;;;;;;41.16;37.36;101211.19;5034455;28;20468;-72
2022/11/21 07:59:55;;;;;;;24.00;16.30;;;;;;;41.14;37.44;101205.28;5034206;28;20435;-73
2022/11/21 08:02:26;;;;;;;26.07;15.17;;;;;;;41.05;37.22;101201.75;5034363;28;20446;-72
2022/11/21 08:04:53;;;;;;;26.23;15.67;;;;;;;41.19;37.04;101204.28;5034155;28;20616;-72
2022/11/21 08:07:21;;;;;;;25.57;16.00;;;;;;;41.13;37.42;101200.13;5052409;28;20438;-73
2022/11/21 08:09:47;;;;;;;24.23;16.27;;;;;;;41.20;37.25;101204.00;5034565;28;20429;-72
2022/11/21 08:12:13;;;;;;;26.60;15.80;;;;;;;40.88;37.76;101198.97;5034311;28;20466;-73
2022/11/21 08:14:39;;;;;;;30.33;14.93;;;;;;;41.06;37.62;101206.06;5034165;28;20419;-73
2022/11/21 08:17:06;;;;;;;29.37;16.37;;;;;;;41.38;36.83;101204.81;5034193;28;20978;-73
2022/11/21 08:19:32;;;;;;;24.17;14.60;;;;;;;41.44;36.92;101206.25;5034046;28;20418;-73
2022/11/21 08:21:59;;;;;;;22.13;15.27;;;;;;;41.36;37.45;101207.03;5034195;28;20418;-73
2022/11/21 08:24:25;;;;;;;28.70;15.50;;;;;;;41.34;37.21;101201.13;5052098;28;20479;-73
2022/11/21 08:26:51;;;;;;;18.70;12.53;;;;;;;41.46;37.07;101201.25;5034060;28;20462;-72
2022/11/21 08:29:17;;;;;;;25.10;14.40;;;;;;;41.63;37.07;101203.16;5017806;28;20418;-71
2022/11/21 08:31:44;;;;;;;21.73;15.07;;;;;;;41.48;37.60;101201.72;5031202;28;20407;-72
2022/11/21 08:34:10;;;;;;;21.77;13.03;;;;;;;41.39;37.23;101198.25;5033925;28;20180;-72
2022/11/21 08:36:36;;;;;;;30.00;15.27;;;;;;;41.20;37.50;101200.47;5033983;28;20403;-72
2022/11/21 08:39:03;;;;;;;29.37;14.47;;;;;;;41.57;37.01;101199.00;5052305;28;20399;-71
2022/11/21 08:44:13;;;;;;;25.87;13.00;;;;;;;41.31;37.13;101191.66;5052262;28;20394;-73
2022/11/21 08:46:39;;;;;;;21.37;13.73;;;;;;;41.27;37.17;101187.16;5033775;28;20439;-73
2022/11/21 08:49:07;;;;;;;17.90;12.60;;;;;;;41.40;36.90;101197.09;5034064;28;20414;-73
2022/11/21 08:51:33;;;;;;;21.43;13.13;;;;;;;41.18;36.97;101189.88;5034040;28;20202;-73
2022/11/21 08:54:00;;;;;;;30.90;14.17;;;;;;;41.36;36.92;101187.19;5017636;28;20414;-71
2022/11/21 08:56:26;;;;;;;22.83;15.23;;;;;;;41.74;36.60;101188.09;5033848;28;20403;-73
2022/11/21 08:58:52;;;;;;;24.63;12.37;;;;;;;41.89;36.10;101178.59;5033763;28;20414;-74
2022/11/21 09:01:18;;;;;;;24.77;15.57;;;;;;;41.84;36.56;101174.09;5034886;28;20472;-73
2022/11/21 09:03:43;;;;;;;26.63;12.53;;;;;;;41.69;36.03;101182.00;5055703;28;20186;-73
2022/11/21 09:06:11;;;;;;;27.70;13.40;;;;;;;41.47;36.70;101178.34;5037433;28;20529;-73
2022/11/21 09:08:36;;;;;;;23.77;14.00;;;;;;;41.26;36.71;101177.41;5037343;28;20567;-71
2022/11/21 09:11:07;;;;;;;27.13;15.30;;;;;;;41.13;36.99;101187.34;5037152;28;20955;-72
2022/11/21 09:13:34;;;;;;;18.90;12.03;;;;;;;41.25;36.67;101187.50;5037386;28;20335;-71
2022/11/21 09:18:45;;;;;;;20.17;12.67;;;;;;;41.04;36.85;101181.09;5055456;28;20965;-72
2022/11/21 09:21:15;;;;;;;22.47;13.17;;;;;;;41.35;36.19;101180.94;5036984;28;20410;-72
2022/11/21 09:23:41;;;;;;;17.13;10.50;;;;;;;41.32;36.48;101173.41;5037402;28;20454;-72
2022/11/21 09:26:08;;;;;;;24.10;12.07;;;;;;;41.45;36.36;101174.38;5052571;28;21039;-72
2022/11/21 09:28:34;;;;;;;20.63;13.43;;;;;;;41.42;36.89;101175.00;5036846;28;20882;-72
2022/11/21 09:31:02;;;;;;;22.53;13.80;;;;;;;41.32;36.54;101174.22;5055147;28;20395;-72
2022/11/21 09:33:28;;;;;;;22.13;13.63;;;;;;;41.12;37.40;101182.22;5036824;28;20426;-71
2022/11/21 09:35:56;;;;;;;31.80;13.47;;;;;;;41.47;36.63;101174.84;5036909;28;20471;-71
2022/11/21 09:38:22;;;;;;;19.60;13.03;;;;;;;41.90;35.79;101163.84;5036784;28;20446;-72
2022/11/21 09:40:48;;;;;;;23.33;12.37;;;;;;;41.55;36.48;101166.63;5036721;28;20422;-71
2022/11/21 09:43:37;;;;;;;14.50;10.13;;;;;;;41.92;35.84;101171.69;5036675;28;20271;-72
2022/11/21 09:46:34;;;;;;;19.57;10.97;;;;;;;41.41;36.56;101168.75;5054662;28;20813;-73
2022/11/21 09:49:06;;;;;;;24.77;12.90;;;;;;;41.02;37.09;101170.53;5036133;28;20430;-73
2022/11/21 09:51:36;;;;;;;24.97;11.67;;;;;;;41.71;36.38;101166.91;5036035;28;20848;-71
2022/11/21 09:54:11;;;;;;;14.50;9.67;;;;;;;41.53;35.96;101168.88;5036440;28;20433;-71
2022/11/21 09:56:41;;;;;;;15.20;12.20;;;;;;;41.67;36.01;101174.13;5036497;28;20410;-70
2022/11/21 09:59:33;;;;;;;17.97;11.07;;;;;;;41.92;35.84;101164.28;5036337;28;20472;-77
2022/11/21 10:01:59;;;;;;;16.13;10.13;;;;;;;41.89;35.46;101161.44;5036336;28;20857;-72
2022/11/21 10:04:26;;;;;;;18.67;12.23;;;;;;;42.11;35.21;101161.16;5036417;28;20514;-70
2022/11/21 10:07:01;;;;;;;16.10;10.80;;;;;;;41.80;34.69;101167.72;5054410;28;20553;-70
2022/11/21 10:09:43;;;;;;;23.73;11.40;;;;;;;41.96;35.00;101159.00;5036237;28;20415;-72
2022/11/21 10:12:36;;;;;;;16.20;10.40;;;;;;;41.48;35.16;101157.38;5036134;28;20492;-73
2022/11/21 10:15:39;;;;;;;17.90;11.90;;;;;;;41.13;35.69;101151.13;5035802;28;20442;-72
2022/11/21 10:18:21;;;;;;;17.50;11.10;;;;;;;41.74;34.85;101143.66;5036070;28;20918;-73
2022/11/21 10:20:52;;;;;;;26.63;10.70;;;;;;;41.98;35.26;101148.56;5035915;28;20418;-73
2022/11/21 10:23:38;;;;;;;25.03;12.13;;;;;;;41.72;35.71;101141.28;5035841;28;20802;-73
2022/11/21 10:26:18;;;;;;;19.17;9.47;;;;;;;41.92;35.01;101147.16;5035619;28;20474;-73
2022/11/21 10:28:51;;;;;;;17.33;9.80;;;;;;;42.39;34.53;101132.34;5035866;28;20803;-73
2022/11/21 10:31:18;;;;;;;14.47;9.30;;;;;;;42.41;34.91;101145.63;5053012;28;20897;-73
2022/11/21 10:33:44;;;;;;;13.70;9.70;;;;;;;42.36;34.81;101130.28;5033627;28;20934;-74
2022/11/21 10:36:38;;;;;;;22.53;10.83;;;;;;;41.94;34.94;101136.75;5035656;28;20927;-74
2022/11/21 10:39:36;;;;;;;12.13;9.23;;;;;;;41.91;34.95;101129.22;5033742;28;20442;-72
2022/11/21 10:42:37;;;;;;;17.80;8.80;;;;;;;41.69;35.48;101128.31;5031886;28;20462;-73
2022/11/21 10:45:17;;;;;;;15.20;8.30;;;;;;;41.56;35.59;101115.72;5032573;28;20422;-71
2022/11/21 10:47:51;;;;;;;15.50;11.70;;;;;;;42.06;34.76;101115.03;5035316;28;20442;-72
2022/11/21 10:50:32;;;;;;;20.00;8.70;;;;;;;42.05;34.47;101113.41;5035508;28;20418;-77
2022/11/21 10:56:01;;;;;;;20.00;10.23;;;;;;;41.87;34.59;101096.38;5053191;28;20391;-71
2022/11/21 10:58:49;;;;;;;20.70;10.53;;;;;;;42.05;34.85;101092.44;5035363;28;20945;-71
2022/11/21 11:01:29;;;;;;;22.70;10.60;;;;;;;41.60;35.13;101100.31;5035003;28;20484;-71
2022/11/21 11:04:11;;;;;;;14.77;9.63;;;;;;;41.61;34.90;101096.44;5035182;28;20912;-71
2022/11/21 11:06:38;;;;;;;26.63;9.53;;;;;;;41.64;35.35;101093.09;5035325;28;20886;-72
2022/11/21 11:09:06;;;;;;;15.27;9.20;;;;;;;42.22;34.24;101086.09;5035277;28;20477;-71
2022/11/21 11:11:32;;;;;;;16.30;11.07;;;;;;;42.03;34.49;101080.25;5035113;28;20417;-72
2022/11/21 11:14:03;;;;;;;19.23;9.70;;;;;;;42.21;34.07;101073.59;5035294;28;20438;-72
2022/11/21 11:16:31;;;;;;;19.03;10.57;;;;;;;42.54;33.97;101076.41;5034942;28;20460;-71
2022/11/21 11:18:59;;;;;;;12.80;9.60;;;;;;;42.44;33.94;101082.25;5035014;28;20415;-71
2022/11/21 11:21:52;;;;;;;22.67;10.00;;;;;;;42.08;34.12;101074.63;5034840;28;20942;-72
2022/11/21 11:24:20;;;;;;;17.33;10.20;;;;;;;42.24;33.78;101070.22;5030279;28;20998;-72
2022/11/21 11:26:46;;;;;;;24.57;11.03;;;;;;;41.73;34.48;101063.06;5034801;28;20959;-72
2022/11/21 11:29:25;;;;;;;16.60;10.47;;;;;;;41.94;34.14;101060.44;5053093;28;20395;-72
2022/11/21 11:32:03;;;;;;;16.77;10.90;;;;;;;41.91;34.58;101055.63;5034733;28;20179;-72
2022/11/21 11:34:40;;;;;;;27.17;11.00;;;;;;;41.93;34.50;101048.75;5034574;28;20402;-73